Time,TemperatureF,DewpointF,PressureIn,WindDirection,WindDirectionDegrees,WindSpeedMPH,WindSpeedGustMPH,Humidity,HourlyPrecipIn,Conditions,Clouds,dailyrainin,SoftwareType,DateUTC
2013-06-15 00:05:00,55.9,53.9,29.99,WNW,302,0.0,0.0,93,0.00,,,0.00,Wunderground v.1.15,2013-06-15 04:05:00,
2013-06-15 00:15:00,55.7,53.7,29.98,WNW,302,0.0,0.0,93,0.00,,,0.00,Wunderground v.1.15,2013-06-15 04:15:00,
2013-06-15 00:25:00,55.7,54.0,29.98,WNW,302,0.0,0.0,94,0.00,,,0.00,Wunderground v.1.15,2013-06-15 04:25:00,
2013-06-15 00:35:00,55.4,53.7,29.98,WNW,302,0.0,0.0,94,0.00,,,0.00,Wunderground v.1.15,2013-06-15 04:35:00,
2013-06-15 00:45:00,55.4,54.0,29.99,WNW,302,0.0,0.0,95,0.00,,,0.00,Wunderground v.1.15,2013-06-15 04:45:00,
2013-06-15 00:55:00,55.9,54.5,29.98,WNW,302,0.0,0.0,95,0.00,,,0.00,Wunderground v.1.15,2013-06-15 04:55:00,
2013-06-15 01:05:00,55.4,54.0,29.98,WNW,302,0.0,0.0,95,0.00,,,0.00,Wunderground v.1.15,2013-06-15 05:05:00,
2013-06-15 01:15:00,55.0,53.6,29.97,WNW,302,0.0,0.0,95,0.00,,,0.00,Wunderground v.1.15,2013-06-15 05:15:00,
2013-06-15 01:25:00,55.0,53.9,29.98,WNW,302,0.0,0.0,96,0.00,,,0.00,Wunderground v.1.15,2013-06-15 05:25:00,
2013-06-15 01:35:00,54.8,53.7,29.98,WNW,302,0.0,0.0,96,0.00,,,0.00,Wunderground v.1.15,2013-06-15 05:35:00,
2013-06-15 01:45:00,55.0,53.9,29.98,WNW,302,0.0,0.0,96,0.00,,,0.00,Wunderground v.1.15,2013-06-15 05:45:00,
2013-06-15 01:55:00,55.0,53.9,29.98,WNW,302,0.0,0.0,96,0.00,,,0.00,Wunderground v.1.15,2013-06-15 05:55:00,
2013-06-15 02:05:00,54.8,54.0,29.98,WNW,302,0.0,0.0,97,0.00,,,0.00,Wunderground v.1.15,2013-06-15 06:05:00,
2013-06-15 02:15:00,54.5,53.7,29.98,WNW,302,0.0,0.0,97,0.00,,,0.00,Wunderground v.1.15,2013-06-15 06:15:00,
2013-06-15 02:25:00,54.2,53.4,29.99,WNW,302,0.0,0.0,97,0.00,,,0.00,Wunderground v.1.15,2013-06-15 06:25:00,
2013-06-15 02:35:00,53.8,53.0,29.99,WNW,302,0.0,0.0,97,0.00,,,0.00,Wunderground v.1.15,2013-06-15 06:35:00,
2013-06-15 02:45:00,53.6,52.8,29.99,WNW,302,0.0,0.0,97,0.00,,,0.00,Wunderground v.1.15,2013-06-15 06:45:00,
2013-06-15 02:55:00,53.8,53.0,29.99,WNW,302,0.0,0.0,97,0.00,,,0.00,Wunderground v.1.15,2013-06-15 06:55:00,
2013-06-15 03:05:00,53.8,53.0,29.99,WNW,302,0.0,0.0,97,0.00,,,0.00,Wunderground v.1.15,2013-06-15 07:05:00,
2013-06-15 03:15:00,53.9,53.1,29.99,WNW,302,0.0,0.0,97,0.00,,,0.00,Wunderground v.1.15,2013-06-15 07:15:00,
2013-06-15 03:25:00,53.9,53.1,29.99,WNW,302,0.0,0.0,97,0.00,,,0.00,Wunderground v.1.15,2013-06-15 07:25:00,
2013-06-15 03:35:00,54.2,53.6,29.99,WNW,302,0.0,0.0,98,0.00,,,0.00,Wunderground v.1.15,2013-06-15 07:35:00,
2013-06-15 03:45:00,53.9,53.1,29.98,WNW,302,0.0,0.0,97,0.00,,,0.00,Wunderground v.1.15,2013-06-15 07:45:00,
2013-06-15 03:55:00,53.8,53.2,29.98,WNW,302,0.0,0.0,98,0.00,,,0.00,Wunderground v.1.15,2013-06-15 07:55:00,
2013-06-15 04:05:00,53.9,53.3,29.98,WNW,302,0.0,0.0,98,0.00,,,0.00,Wunderground v.1.15,2013-06-15 08:05:00,
2013-06-15 04:15:00,54.1,53.5,29.96,WNW,302,0.0,0.0,98,0.00,,,0.00,Wunderground v.1.15,2013-06-15 08:15:00,
2013-06-15 04:25:00,54.4,53.8,29.95,WNW,302,1.0,1.0,98,0.00,,,0.00,Wunderground v.1.15,2013-06-15 08:25:00,
2013-06-15 04:35:00,54.8,54.2,29.95,WNW,302,1.0,1.0,98,0.00,,,0.00,Wunderground v.1.15,2013-06-15 08:35:00,
2013-06-15 04:45:00,55.0,54.4,29.95,WNW,302,0.0,0.0,98,0.00,,,0.00,Wunderground v.1.15,2013-06-15 08:45:00,
2013-06-15 04:55:00,55.3,54.7,29.97,WNW,302,0.0,0.0,98,0.00,,,0.00,Wunderground v.1.15,2013-06-15 08:55:00,
2013-06-15 05:05:00,56.0,55.4,29.97,WNW,302,0.0,0.0,98,0.00,,,0.00,Wunderground v.1.15,2013-06-15 09:05:00,
2013-06-15 05:15:00,56.5,55.9,29.99,WNW,302,0.0,0.0,98,0.00,,,0.00,Wunderground v.1.15,2013-06-15 09:15:00,
2013-06-15 05:25:00,56.6,55.8,29.99,WNW,302,0.0,0.0,97,0.00,,,0.00,Wunderground v.1.15,2013-06-15 09:25:00,
2013-06-15 05:35:00,56.5,55.7,29.99,WNW,302,0.0,0.0,97,0.00,,,0.00,Wunderground v.1.15,2013-06-15 09:35:00,
2013-06-15 05:45:00,56.6,55.8,29.98,WNW,302,0.0,0.0,97,0.00,,,0.00,Wunderground v.1.15,2013-06-15 09:45:00,
2013-06-15 05:55:00,56.6,55.8,29.99,WNW,302,0.0,0.0,97,0.00,,,0.00,Wunderground v.1.15,2013-06-15 09:55:00,
2013-06-15 06:05:00,56.6,55.8,29.99,WNW,302,0.0,0.0,97,0.00,,,0.00,Wunderground v.1.15,2013-06-15 10:05:00,
2013-06-15 06:15:00,56.9,56.1,29.99,WNW,302,0.0,0.0,97,0.00,,,0.00,Wunderground v.1.15,2013-06-15 10:15:00,
2013-06-15 06:25:00,57.3,56.5,29.99,WNW,302,0.0,0.0,97,0.00,,,0.00,Wunderground v.1.15,2013-06-15 10:25:00,
2013-06-15 06:35:00,57.6,56.5,29.99,WNW,302,0.0,0.0,96,0.00,,,0.00,Wunderground v.1.15,2013-06-15 10:35:00,
2013-06-15 06:45:00,57.8,56.4,30.00,WNW,302,0.0,0.0,95,0.00,,,0.00,Wunderground v.1.15,2013-06-15 10:45:00,
2013-06-15 06:55:00,58.3,56.6,30.00,WNW,302,0.0,0.0,94,0.00,,,0.00,Wunderground v.1.15,2013-06-15 10:55:00,
2013-06-15 07:05:00,58.6,56.6,30.00,WNW,302,0.0,0.0,93,0.00,,,0.00,Wunderground v.1.15,2013-06-15 11:05:00,
2013-06-15 07:15:00,58.7,56.7,30.00,WNW,302,0.0,0.0,93,0.00,,,0.00,Wunderground v.1.15,2013-06-15 11:15:00,
2013-06-15 07:25:00,59.0,57.0,29.99,WNW,302,0.0,0.0,93,0.00,,,0.00,Wunderground v.1.15,2013-06-15 11:25:00,
2013-06-15 07:35:00,59.2,56.9,29.99,WNW,302,0.0,0.0,92,0.00,,,0.00,Wunderground v.1.15,2013-06-15 11:35:00,
2013-06-15 07:45:00,59.2,57.2,29.99,WNW,302,0.0,0.0,93,0.00,,,0.00,Wunderground v.1.15,2013-06-15 11:45:00,
2013-06-15 07:55:00,59.5,57.5,29.99,WNW,302,0.0,0.0,93,0.00,,,0.00,Wunderground v.1.15,2013-06-15 11:55:00,
2013-06-15 08:05:00,59.8,57.5,29.99,WNW,302,0.0,0.0,92,0.00,,,0.00,Wunderground v.1.15,2013-06-15 12:05:00,
2013-06-15 08:15:00,60.2,57.9,29.99,WNW,302,0.0,0.0,92,0.00,,,0.00,Wunderground v.1.15,2013-06-15 12:15:00,
2013-06-15 08:25:00,60.5,57.9,29.99,WNW,302,0.0,0.0,91,0.00,,,0.00,Wunderground v.1.15,2013-06-15 12:25:00,
2013-06-15 08:35:00,60.9,58.3,29.99,WNW,302,0.0,0.0,91,0.00,,,0.00,Wunderground v.1.15,2013-06-15 12:35:00,
2013-06-15 08:45:00,61.2,58.2,29.99,WNW,302,0.0,0.0,90,0.00,,,0.00,Wunderground v.1.15,2013-06-15 12:45:00,
2013-06-15 08:55:00,61.5,58.5,29.99,WNW,302,0.0,0.0,90,0.00,,,0.00,Wunderground v.1.15,2013-06-15 12:55:00,
2013-06-15 09:05:00,61.8,58.5,29.99,WNW,302,0.0,0.0,89,0.00,,,0.00,Wunderground v.1.15,2013-06-15 13:05:00,
2013-06-15 09:15:00,62.4,59.1,29.98,WNW,302,0.0,0.0,89,0.00,,,0.00,Wunderground v.1.15,2013-06-15 13:15:00,
2013-06-15 09:25:00,62.6,59.0,29.97,WNW,302,2.0,2.0,88,0.00,,,0.00,Wunderground v.1.15,2013-06-15 13:25:00,
2013-06-15 09:35:00,62.7,59.1,29.97,WNW,302,2.0,2.0,88,0.00,,,0.00,Wunderground v.1.15,2013-06-15 13:35:00,
2013-06-15 09:45:00,63.2,59.3,29.97,WNW,302,1.0,1.0,87,0.00,,,0.00,Wunderground v.1.15,2013-06-15 13:45:00,
2013-06-15 09:55:00,63.9,59.6,29.96,WNW,302,1.0,1.0,86,0.00,,,0.00,Wunderground v.1.15,2013-06-15 13:55:00,
2013-06-15 10:05:00,64.2,59.9,29.96,WNW,302,0.0,0.0,86,0.00,,,0.00,Wunderground v.1.15,2013-06-15 14:05:00,
2013-06-15 10:15:00,64.5,59.9,29.96,WNW,302,0.0,0.0,85,0.00,,,0.00,Wunderground v.1.15,2013-06-15 14:15:00,
2013-06-15 10:25:00,64.8,59.9,29.96,WNW,302,0.0,0.0,84,0.00,,,0.00,Wunderground v.1.15,2013-06-15 14:25:00,
2013-06-15 10:35:00,65.2,59.9,29.96,WNW,302,0.0,0.0,83,0.00,,,0.00,Wunderground v.1.15,2013-06-15 14:35:00,
2013-06-15 10:45:00,65.5,60.2,29.95,WNW,302,0.0,0.0,83,0.00,,,0.00,Wunderground v.1.15,2013-06-15 14:45:00,
2013-06-15 10:55:00,65.8,60.5,29.94,ENE,69,0.0,2.0,83,0.00,,,0.00,Wunderground v.1.15,2013-06-15 14:55:00,
2013-06-15 11:05:00,66.4,61.1,29.94,East,80,2.0,2.0,83,0.00,,,0.00,Wunderground v.1.15,2013-06-15 15:05:00,
2013-06-15 11:15:00,66.9,60.9,29.94,SE,132,2.0,2.0,81,0.00,,,0.00,Wunderground v.1.15,2013-06-15 15:15:00,
2013-06-15 11:25:00,67.4,61.4,29.93,SE,133,3.0,5.0,81,0.00,,,0.00,Wunderground v.1.15,2013-06-15 15:25:00,
2013-06-15 11:35:00,67.6,61.2,29.93,SE,133,2.0,2.0,80,0.00,,,0.00,Wunderground v.1.15,2013-06-15 15:35:00,
2013-06-15 11:45:00,68.1,61.3,29.94,SE,133,0.0,0.0,79,0.00,,,0.00,Wunderground v.1.15,2013-06-15 15:45:00,
2013-06-15 11:55:00,68.6,61.5,29.94,SE,133,0.0,0.0,78,0.00,,,0.00,Wunderground v.1.15,2013-06-15 15:55:00,
2013-06-15 12:05:00,68.9,61.4,29.94,SE,133,0.0,0.0,77,0.00,,,0.00,Wunderground v.1.15,2013-06-15 16:05:00,
2013-06-15 12:15:00,69.1,61.6,29.94,SE,133,0.0,0.0,77,0.00,,,0.00,Wunderground v.1.15,2013-06-15 16:15:00,
2013-06-15 12:25:00,69.3,62.1,29.94,SE,133,0.0,5.0,78,0.00,,,0.00,Wunderground v.1.15,2013-06-15 16:25:00,
2013-06-15 12:35:00,69.3,62.5,29.94,SE,133,2.0,2.0,79,0.00,,,0.00,Wunderground v.1.15,2013-06-15 16:35:00,
2013-06-15 12:45:00,69.4,62.2,29.94,SE,133,1.0,1.0,78,0.00,,,0.00,Wunderground v.1.15,2013-06-15 16:45:00,
2013-06-15 12:55:00,70.1,62.6,29.95,SE,133,0.0,0.0,77,0.00,,,0.00,Wunderground v.1.15,2013-06-15 16:55:00,
2013-06-15 13:05:00,70.9,63.0,29.95,SE,133,0.0,0.0,76,0.00,,,0.00,Wunderground v.1.15,2013-06-15 17:05:00,
2013-06-15 13:15:00,71.6,62.1,29.95,SE,133,1.0,1.0,72,0.00,,,0.00,Wunderground v.1.15,2013-06-15 17:15:00,
2013-06-15 13:25:00,72.5,61.7,29.95,South,189,1.0,4.0,69,0.00,,,0.00,Wunderground v.1.15,2013-06-15 17:25:00,
2013-06-15 13:35:00,72.5,62.2,29.95,SSW,204,2.0,2.0,70,0.00,,,0.00,Wunderground v.1.15,2013-06-15 17:35:00,
2013-06-15 13:45:00,72.3,62.0,29.95,SSW,204,1.0,3.0,70,0.00,,,0.00,Wunderground v.1.15,2013-06-15 17:45:00,
2013-06-15 13:55:00,72.1,61.4,29.96,WSW,244,3.0,4.0,69,0.00,,,0.00,Wunderground v.1.15,2013-06-15 17:55:00,
2013-06-15 14:05:00,72.0,62.5,29.96,SW,219,3.0,7.0,72,0.00,,,0.00,Wunderground v.1.15,2013-06-15 18:05:00,
2013-06-15 14:15:00,72.0,62.9,29.95,West,259,6.0,9.0,73,0.00,,,0.00,Wunderground v.1.15,2013-06-15 18:15:00,
2013-06-15 14:25:00,72.0,62.5,29.96,WSW,238,7.0,8.0,72,0.00,,,0.00,Wunderground v.1.15,2013-06-15 18:25:00,
2013-06-15 14:35:00,71.3,61.8,29.96,West,264,12.0,12.0,72,0.00,,,0.00,Wunderground v.1.15,2013-06-15 18:35:00,
2013-06-15 14:45:00,70.6,61.5,29.96,West,260,11.0,14.0,73,0.00,,,0.00,Wunderground v.1.15,2013-06-15 18:45:00,
2013-06-15 14:55:00,70.4,62.1,29.95,SW,230,11.0,11.0,75,0.00,,,0.00,Wunderground v.1.15,2013-06-15 18:55:00,
2013-06-15 15:05:00,69.9,61.6,29.95,WSW,237,11.0,11.0,75,0.00,,,0.00,Wunderground v.1.15,2013-06-15 19:05:00,
2013-06-15 15:15:00,70.1,62.9,29.95,WSW,244,10.0,10.0,78,0.00,,,0.00,Wunderground v.1.15,2013-06-15 19:15:00,
2013-06-15 15:25:00,71.1,63.9,29.95,SW,222,10.0,10.0,78,0.00,,,0.00,Wunderground v.1.15,2013-06-15 19:25:00,
2013-06-15 15:35:00,70.9,63.0,29.95,WSW,247,10.0,10.0,76,0.00,,,0.00,Wunderground v.1.15,2013-06-15 19:35:00,
2013-06-15 15:45:00,70.4,62.8,29.96,SW,228,10.0,10.0,77,0.00,,,0.00,Wunderground v.1.15,2013-06-15 19:45:00,
2013-06-15 15:55:00,70.4,63.2,29.96,WSW,241,10.0,10.0,78,0.00,,,0.00,Wunderground v.1.15,2013-06-15 19:55:00,
2013-06-15 16:05:00,70.4,62.5,29.96,West,261,10.0,10.0,76,0.00,,,0.00,Wunderground v.1.15,2013-06-15 20:05:00,
2013-06-15 16:15:00,70.6,63.4,29.96,WSW,251,9.0,11.0,78,0.00,,,0.00,Wunderground v.1.15,2013-06-15 20:15:00,
2013-06-15 16:25:00,70.3,63.5,29.96,SSW,211,8.0,9.0,79,0.00,,,0.00,Wunderground v.1.15,2013-06-15 20:25:00,
2013-06-15 16:35:00,70.3,63.1,29.96,WSW,243,9.0,9.0,78,0.00,,,0.00,Wunderground v.1.15,2013-06-15 20:35:00,
2013-06-15 16:45:00,70.3,63.1,29.95,SW,225,9.0,10.0,78,0.00,,,0.00,Wunderground v.1.15,2013-06-15 20:45:00,
2013-06-15 16:55:00,70.4,63.6,29.94,SW,220,11.0,11.0,79,0.00,,,0.00,Wunderground v.1.15,2013-06-15 20:55:00,
2013-06-15 17:05:00,70.1,63.3,29.94,SW,223,9.0,9.0,79,0.00,,,0.00,Wunderground v.1.15,2013-06-15 21:05:00,
2013-06-15 17:15:00,70.1,62.6,29.92,SSW,200,7.0,14.0,77,0.00,,,0.00,Wunderground v.1.15,2013-06-15 21:15:00,
2013-06-15 17:25:00,70.1,62.6,29.91,SSW,198,7.0,9.0,77,0.00,,,0.00,Wunderground v.1.15,2013-06-15 21:25:00,
2013-06-15 17:35:00,70.8,63.2,29.91,South,178,7.0,7.0,77,0.00,,,0.00,Wunderground v.1.15,2013-06-15 21:35:00,
2013-06-15 17:45:00,70.9,62.6,29.91,South,178,7.0,8.0,75,0.00,,,0.00,Wunderground v.1.15,2013-06-15 21:45:00,
2013-06-15 17:55:00,70.4,62.1,29.90,South,190,7.0,10.0,75,0.00,,,0.00,Wunderground v.1.15,2013-06-15 21:55:00,
2013-06-15 18:05:00,71.5,63.2,29.90,South,176,6.0,6.0,75,0.00,,,0.00,Wunderground v.1.15,2013-06-15 22:05:00,
2013-06-15 18:15:00,71.6,62.9,29.89,SSW,192,6.0,7.0,74,0.00,,,0.00,Wunderground v.1.15,2013-06-15 22:15:00,
2013-06-15 18:25:00,71.6,62.9,29.88,SSW,194,7.0,7.0,74,0.00,,,0.00,Wunderground v.1.15,2013-06-15 22:25:00,
2013-06-15 18:35:00,71.8,62.7,29.88,South,185,7.0,8.0,73,0.00,,,0.00,Wunderground v.1.15,2013-06-15 22:35:00,
2013-06-15 18:45:00,71.6,62.5,29.87,South,174,7.0,7.0,73,0.00,,,0.00,Wunderground v.1.15,2013-06-15 22:45:00,
2013-06-15 18:55:00,71.3,62.6,29.87,SSE,156,7.0,7.0,74,0.00,,,0.00,Wunderground v.1.15,2013-06-15 22:55:00,
2013-06-15 19:05:00,70.9,62.2,29.87,SSE,156,8.0,11.0,74,0.00,,,0.00,Wunderground v.1.15,2013-06-15 23:05:00,
2013-06-15 19:15:00,70.8,62.5,29.86,SSE,159,8.0,8.0,75,0.00,,,0.00,Wunderground v.1.15,2013-06-15 23:15:00,
2013-06-15 19:25:00,70.6,62.3,29.85,SSE,161,8.0,9.0,75,0.00,,,0.00,Wunderground v.1.15,2013-06-15 23:25:00,
2013-06-15 19:35:00,70.8,63.2,29.85,SSE,162,7.0,9.0,77,0.00,,,0.00,Wunderground v.1.15,2013-06-15 23:35:00,
2013-06-15 19:45:00,70.8,63.2,29.84,SSE,149,6.0,8.0,77,0.00,,,0.00,Wunderground v.1.15,2013-06-15 23:45:00,
2013-06-15 19:55:00,70.6,63.4,29.84,SE,143,8.0,8.0,78,0.00,,,0.00,Wunderground v.1.15,2013-06-15 23:55:00,
2013-06-15 20:05:00,70.4,62.8,29.84,SE,138,7.0,7.0,77,0.00,,,0.00,Wunderground v.1.15,2013-06-16 00:05:00,
2013-06-15 20:15:00,70.1,62.6,29.84,South,171,6.0,6.0,77,0.00,,,0.00,Wunderground v.1.15,2013-06-16 00:15:00,
2013-06-15 20:25:00,69.4,62.6,29.84,SSE,151,5.0,6.0,79,0.00,,,0.00,Wunderground v.1.15,2013-06-16 00:25:00,
2013-06-15 20:35:00,68.8,62.4,29.84,SSE,152,4.0,5.0,80,0.00,,,0.00,Wunderground v.1.15,2013-06-16 00:35:00,
2013-06-15 20:45:00,68.6,62.5,29.84,SSE,152,4.0,5.0,81,0.00,,,0.00,Wunderground v.1.15,2013-06-16 00:45:00,
2013-06-15 20:55:00,68.1,62.4,29.83,SE,138,5.0,5.0,82,0.00,,,0.00,Wunderground v.1.15,2013-06-16 00:55:00,
2013-06-15 21:05:00,68.1,62.0,29.83,SE,136,6.0,7.0,81,0.00,,,0.00,Wunderground v.1.15,2013-06-16 01:05:00,
2013-06-15 21:15:00,67.9,61.9,29.82,SE,142,6.0,6.0,81,0.00,,,0.00,Wunderground v.1.15,2013-06-16 01:15:00,
2013-06-15 21:25:00,67.4,62.1,29.83,SE,139,5.0,5.0,83,0.00,,,0.00,Wunderground v.1.15,2013-06-16 01:25:00,
2013-06-15 21:35:00,67.3,62.0,29.83,South,173,4.0,5.0,83,0.00,,,0.00,Wunderground v.1.15,2013-06-16 01:35:00,
2013-06-15 21:45:00,67.3,62.0,29.84,South,180,4.0,4.0,83,0.00,,,0.00,Wunderground v.1.15,2013-06-16 01:45:00,
2013-06-15 21:55:00,67.1,62.1,29.84,South,178,4.0,4.0,84,0.00,,,0.00,Wunderground v.1.15,2013-06-16 01:55:00,
2013-06-15 22:05:00,66.6,61.9,29.84,South,174,4.0,4.0,85,0.00,,,0.00,Wunderground v.1.15,2013-06-16 02:05:00,
2013-06-15 22:15:00,66.3,62.0,29.84,SSE,165,5.0,5.0,86,0.00,,,0.00,Wunderground v.1.15,2013-06-16 02:15:00,
2013-06-15 22:25:00,66.1,62.1,29.84,SSE,167,5.0,5.0,87,0.00,,,0.00,Wunderground v.1.15,2013-06-16 02:25:00,
2013-06-15 22:35:00,66.1,62.1,29.84,SSE,162,4.0,8.0,87,0.00,,,0.00,Wunderground v.1.15,2013-06-16 02:35:00,
2013-06-15 22:45:00,66.1,62.1,29.84,SSE,153,5.0,6.0,87,0.00,,,0.00,Wunderground v.1.15,2013-06-16 02:45:00,
2013-06-15 22:55:00,66.1,62.4,29.83,SSE,152,6.0,6.0,88,0.00,,,0.00,Wunderground v.1.15,2013-06-16 02:55:00,
2013-06-15 23:05:00,66.1,62.4,29.83,SSE,157,6.0,7.0,88,0.00,,,0.00,Wunderground v.1.15,2013-06-16 03:05:00,
2013-06-15 23:15:00,66.1,62.8,29.82,SE,146,7.0,7.0,89,0.00,,,0.00,Wunderground v.1.15,2013-06-16 03:15:00,
2013-06-15 23:25:00,66.1,62.8,29.81,SSE,151,7.0,9.0,89,0.00,,,0.00,Wunderground v.1.15,2013-06-16 03:25:00,
2013-06-15 23:35:00,66.3,63.0,29.81,SSE,160,7.0,8.0,89,0.00,,,0.00,Wunderground v.1.15,2013-06-16 03:35:00,
2013-06-15 23:45:00,66.3,63.3,29.81,South,171,6.0,9.0,90,0.00,,,0.00,Wunderground v.1.15,2013-06-16 03:45:00,
2013-06-15 23:55:00,66.3,63.3,29.80,SE,144,6.0,6.0,90,0.00,,,0.00,Wunderground v.1.15,2013-06-16 03:55:00,